createdAt,value
2019-01-11T00:00:13.293Z,19.2
2019-01-11T00:01:03.933Z,19.2
2019-01-11T00:01:53.164Z,19.1
2019-01-11T00:02:43.460Z,19.1
2019-01-11T00:03:33.248Z,19.1
2019-01-11T00:04:23.849Z,19.1
2019-01-11T00:05:13.953Z,19.1
2019-01-11T00:06:02.855Z,19.1
2019-01-11T00:06:53.461Z,19.1
2019-01-11T00:07:43.518Z,19.1
2019-01-11T00:08:33.353Z,19.1
2019-01-11T00:09:23.901Z,19.1
2019-01-11T00:10:13.706Z,19.1
2019-01-11T00:11:04.362Z,19.1
2019-01-11T00:11:54.078Z,19.1
2019-01-11T00:12:43.857Z,19.1
2019-01-11T00:13:34.484Z,19.1
2019-01-11T00:14:24.818Z,19.1
2019-01-11T00:15:14.318Z,19.1
2019-01-11T00:16:04.668Z,19.1
2019-01-11T00:34:27.302Z,18.9
2019-01-11T00:35:18.329Z,18.9
2019-01-11T00:36:08.404Z,18.9
2019-01-11T00:36:57.964Z,18.9
2019-01-11T00:37:47.428Z,18.9
2019-01-11T00:38:37.731Z,18.9
2019-01-11T00:39:27.811Z,18.9
2019-01-11T00:40:17.862Z,18.9
2019-01-11T00:41:08.453Z,18.9
2019-01-11T00:41:57.731Z,18.9
2019-01-11T00:42:48.328Z,18.9
2019-01-11T00:43:38.333Z,18.9
2019-01-11T00:44:28.135Z,18.9
2019-01-11T00:45:18.446Z,18.9
2019-01-11T00:46:08.255Z,18.9
2019-01-11T00:46:57.743Z,18.9
2019-01-11T00:47:47.808Z,18.9
2019-01-11T00:48:38.126Z,18.9
2019-01-11T00:49:28.866Z,18.9
2019-01-11T00:50:19.118Z,18.8
2019-01-11T00:51:08.583Z,18.8
2019-01-11T00:51:58.628Z,18.8
2019-01-11T00:52:48.415Z,18.8
2019-01-11T00:53:38.788Z,18.8
2019-01-11T00:54:28.313Z,18.8
2019-01-11T00:55:19.478Z,18.8
2019-01-11T00:56:09.503Z,18.8
2019-01-11T00:56:58.760Z,18.8
2019-01-11T00:57:48.850Z,18.8
2019-01-11T00:58:39.374Z,18.8
2019-01-11T00:59:29.688Z,18.8
2019-01-11T01:00:18.945Z,18.8
2019-01-11T01:01:08.987Z,18.8
2019-01-11T01:01:59.040Z,18.8
2019-01-11T01:02:49.724Z,18.8
2019-01-11T01:04:29.200Z,18.8
2019-01-11T01:06:59.967Z,18.8
2019-01-11T01:17:50.661Z,18.6
2019-01-11T01:18:40.731Z,18.6
2019-01-11T01:19:30.502Z,18.6
2019-01-11T01:20:20.919Z,18.6
2019-01-11T01:21:11.199Z,18.6
2019-01-11T01:22:01.282Z,18.6
2019-01-11T01:22:50.996Z,18.6
2019-01-11T01:23:41.076Z,18.6
2019-01-11T01:24:30.848Z,18.6
2019-01-11T01:25:21.199Z,18.6
2019-01-11T01:26:10.951Z,18.6
2019-01-11T01:27:00.461Z,18.6
2019-01-11T01:27:51.084Z,18.6
2019-01-11T01:28:40.773Z,18.6
2019-01-11T01:29:30.825Z,18.6
2019-01-11T01:30:21.128Z,18.6
2019-01-11T01:31:10.303Z,18.6
2019-01-11T01:32:01.135Z,18.6
2019-01-11T01:32:51.483Z,18.5
2019-01-11T01:33:41.258Z,18.6
2019-01-11T01:34:30.755Z,18.6
2019-01-11T01:35:20.780Z,18.5
2019-01-11T01:36:11.353Z,18.5
2019-01-11T01:37:01.977Z,18.5
2019-01-11T01:37:52.553Z,18.5
2019-01-11T01:38:42.352Z,18.5
2019-01-11T01:39:32.152Z,18.5
2019-01-11T01:40:22.470Z,18.5
2019-01-11T01:41:11.190Z,18.5
2019-01-11T01:42:02.571Z,18.5
2019-01-11T01:42:52.899Z,18.4
2019-01-11T01:43:42.675Z,18.4
2019-01-11T01:44:32.257Z,18.4
2019-01-11T01:45:22.304Z,18.4
2019-01-11T01:46:12.870Z,18.4
2019-01-11T01:47:02.674Z,18.4
2019-01-11T01:47:52.433Z,18.4
2019-01-11T01:48:42.775Z,18.5
2019-01-11T01:49:32.754Z,18.5
2019-01-11T01:50:22.647Z,18.5
2019-01-11T01:51:12.642Z,18.5
2019-01-11T01:52:03.542Z,18.4
2019-01-11T01:52:52.815Z,18.4
2019-01-11T01:53:43.371Z,18.4
2019-01-11T01:54:33.158Z,18.4
2019-01-11T01:55:22.937Z,18.4
2019-01-11T01:56:12.454Z,18.4
2019-01-11T01:57:03.319Z,18.4
2019-01-11T01:57:53.389Z,18.4
2019-01-11T01:58:43.406Z,18.4
2019-01-11T01:59:32.944Z,18.4
2019-01-11T02:00:22.531Z,18.4
2019-01-11T02:01:12.849Z,18.4
2019-01-11T02:02:03.235Z,18.4
2019-01-11T02:02:52.938Z,18.4
2019-01-11T02:03:43.584Z,18.4
2019-01-11T02:04:33.671Z,18.4
2019-01-11T02:05:22.866Z,18.4
2019-01-11T02:06:13.988Z,18.4
2019-01-11T02:07:03.803Z,18.4
2019-01-11T02:07:53.845Z,18.4
2019-01-11T02:08:43.656Z,18.4
2019-01-11T02:09:33.138Z,18.4
2019-01-11T02:10:23.476Z,18.4
2019-01-11T02:11:14.077Z,18.4
2019-01-11T02:12:03.821Z,18.4
2019-01-11T02:12:54.698Z,18.4
2019-01-11T02:13:44.180Z,18.4
2019-01-11T02:14:33.958Z,18.4
2019-01-11T02:15:24.546Z,18.4
2019-01-11T02:16:13.841Z,18.4
2019-01-11T02:17:03.950Z,18.4
2019-01-11T02:17:54.451Z,18.4
2019-01-11T02:18:45.062Z,18.4
2019-01-11T02:19:39.740Z,18.3
2019-01-11T02:20:24.108Z,18.3
2019-01-11T02:21:13.883Z,18.4
2019-01-11T02:22:04.772Z,18.4
2019-01-11T02:22:54.802Z,18.3
2019-01-11T02:23:45.400Z,18.3
2019-01-11T02:24:35.195Z,18.3
2019-01-11T02:25:24.957Z,18.4
2019-01-11T02:26:15.069Z,18.3
2019-01-11T02:27:04.920Z,18.3
2019-01-11T02:27:54.482Z,18.3
2019-01-11T02:28:45.182Z,18.3
2019-01-11T02:29:34.203Z,18.3
2019-01-11T02:30:25.498Z,18.3
2019-01-11T02:31:15.431Z,18.3
2019-01-11T02:32:06.030Z,18.3
2019-01-11T02:32:58.890Z,18.3
2019-01-11T02:33:45.529Z,18.3
2019-01-11T02:34:35.365Z,18.3
2019-01-11T02:35:26.342Z,18.3
2019-01-11T02:36:14.864Z,18.3
2019-01-11T02:37:06.712Z,18.3
2019-01-11T02:37:55.581Z,18.3
2019-01-11T02:38:46.177Z,18.3
2019-01-11T02:39:36.256Z,18.3
2019-01-11T02:40:26.683Z,18.3
2019-01-11T02:41:16.083Z,18.3
2019-01-11T02:42:06.468Z,18.3
2019-01-11T02:42:55.643Z,18.3
2019-01-11T02:43:45.969Z,18.3
2019-01-11T02:44:37.604Z,18.3
2019-01-11T02:45:26.616Z,18.3
2019-01-11T02:46:15.578Z,18.3
2019-01-11T02:47:07.016Z,18.3
2019-01-11T02:47:56.818Z,18.3
2019-01-11T02:48:46.826Z,18.3
2019-01-11T02:49:43.558Z,18.3
2019-01-11T02:50:27.318Z,18.3
2019-01-11T02:51:16.826Z,18.3
2019-01-11T02:52:07.620Z,18.3
2019-01-11T02:52:57.194Z,18.3
2019-01-11T02:53:47.233Z,18.3
2019-01-11T02:54:37.563Z,18.3
2019-01-11T02:55:27.907Z,18.3
2019-01-11T02:56:17.101Z,18.3
2019-01-11T02:57:07.185Z,18.3
2019-01-11T02:57:57.440Z,18.3
2019-01-11T02:58:47.250Z,18.3
2019-01-11T02:59:37.611Z,18.3
2019-01-11T03:00:27.122Z,18.3
2019-01-11T03:01:17.199Z,18.3
2019-01-11T03:02:07.594Z,18.3
2019-01-11T03:02:57.525Z,18.3
2019-01-11T03:03:47.062Z,18.3
2019-01-11T03:04:37.940Z,18.3
2019-01-11T03:05:28.971Z,18.3
2019-01-11T03:06:17.735Z,18.3
2019-01-11T03:07:08.092Z,18.3
2019-01-11T03:07:57.597Z,18.3
2019-01-11T03:08:48.174Z,18.3
2019-01-11T03:09:38.008Z,18.3
2019-01-11T03:10:26.917Z,18.3
2019-01-11T03:11:18.366Z,18.3
2019-01-11T03:12:08.477Z,18.3
2019-01-11T03:12:58.217Z,18.3
2019-01-11T03:13:48.325Z,18.3
2019-01-11T03:14:38.634Z,18.3
2019-01-11T03:15:27.644Z,18.3
2019-01-11T03:16:19.201Z,18.3
2019-01-11T03:17:08.774Z,18.3
2019-01-11T03:17:58.548Z,18.3
2019-01-11T03:18:48.648Z,18.3
2019-01-11T03:19:38.134Z,18.3
2019-01-11T03:20:29.058Z,18.3
2019-01-11T03:21:19.386Z,18.3
2019-01-11T03:22:08.548Z,18.3
2019-01-11T03:22:58.876Z,18.3
2019-01-11T03:23:49.814Z,18.3
2019-01-11T03:24:39.316Z,18.3
2019-01-11T03:25:28.509Z,18.3
2019-01-11T03:26:19.375Z,18.3
2019-01-11T03:27:09.168Z,18.3
2019-01-11T03:28:00.073Z,18.3
2019-01-11T03:28:49.296Z,18.3
2019-01-11T03:29:40.221Z,18.3
2019-01-11T03:30:29.327Z,18.3
2019-01-11T03:31:20.403Z,18.3
2019-01-11T03:32:09.914Z,18.3
2019-01-11T03:32:59.563Z,18.3
2019-01-11T03:33:49.343Z,18.3
2019-01-11T03:34:40.540Z,18.2
2019-01-11T03:35:29.853Z,18.3
2019-01-11T03:36:20.091Z,18.2
2019-01-11T03:37:10.143Z,18.2
2019-01-11T03:37:59.624Z,18.3
2019-01-11T03:38:50.012Z,18.3
2019-01-11T03:39:39.805Z,18.2
2019-01-11T03:40:30.407Z,18.3
2019-01-11T03:41:19.575Z,18.2
2019-01-11T03:42:10.755Z,18.2
2019-01-11T03:43:00.550Z,18.3
2019-01-11T03:43:50.584Z,18.2
2019-01-11T03:44:40.376Z,18.2
2019-01-11T03:45:31.765Z,18.3
2019-01-11T03:46:20.772Z,18.2
2019-01-11T03:47:10.850Z,18.2
2019-01-11T03:48:01.454Z,18.2
2019-01-11T03:48:51.008Z,18.2
2019-01-11T03:49:41.251Z,18.2
2019-01-11T03:50:31.057Z,18.2
2019-01-11T03:51:21.117Z,18.2
2019-01-11T03:52:10.589Z,18.2
2019-01-11T03:53:00.679Z,18.2
2019-01-11T03:53:51.246Z,18.2
2019-01-11T03:54:39.699Z,18.2
2019-01-11T03:55:31.357Z,18.2
2019-01-11T03:56:21.790Z,18.2
2019-01-11T03:57:11.461Z,18.3
2019-01-11T03:58:01.013Z,18.2
2019-01-11T03:58:51.568Z,18.2
2019-01-11T03:59:41.705Z,18.2
2019-01-11T04:00:31.709Z,18.2
2019-01-11T04:01:20.675Z,18.3
2019-01-11T04:02:10.726Z,18.2
2019-01-11T04:03:01.066Z,18.2
2019-01-11T04:03:51.372Z,18.2
2019-01-11T04:04:40.606Z,18.3
2019-01-11T04:05:31.801Z,18.2
2019-01-11T04:06:22.751Z,18.2
2019-01-11T04:07:11.593Z,18.2
2019-01-11T04:08:02.486Z,18.2
2019-01-11T04:08:51.855Z,18.2
2019-01-11T04:09:41.799Z,18.2
2019-01-11T04:10:31.603Z,18.2
2019-01-11T04:11:22.545Z,18.2
2019-01-11T04:12:11.695Z,18.2
2019-01-11T04:13:02.565Z,18.2
2019-01-11T04:13:52.058Z,18.3
2019-01-11T04:14:42.458Z,18.3
2019-01-11T04:15:33.045Z,18.2
2019-01-11T04:16:22.138Z,18.2
2019-01-11T04:17:13.109Z,18.2
2019-01-11T04:18:02.880Z,18.2
2019-01-11T04:18:53.217Z,18.2
2019-01-11T04:19:42.702Z,18.2
2019-01-11T04:20:33.355Z,18.2
2019-01-11T04:21:22.862Z,18.2
2019-01-11T04:22:12.410Z,18.2
2019-01-11T04:23:03.241Z,18.2
2019-01-11T04:23:52.853Z,18.2
2019-01-11T04:24:43.971Z,18.2
2019-01-11T04:25:33.520Z,18.2
2019-01-11T04:26:22.960Z,18.2
2019-01-11T04:27:13.253Z,18.2
2019-01-11T04:28:04.103Z,18.2
2019-01-11T04:28:53.734Z,18.2
2019-01-11T04:29:43.153Z,18.2
2019-01-11T04:30:33.260Z,18.2
2019-01-11T04:31:23.497Z,18.2
2019-01-11T04:32:13.865Z,18.2
2019-01-11T04:33:04.219Z,18.2
2019-01-11T04:33:54.264Z,18.2
2019-01-11T04:34:43.769Z,18.2
2019-01-11T04:35:34.665Z,18.2
2019-01-11T04:36:24.142Z,18.2
2019-01-11T04:37:14.204Z,18.2
2019-01-11T04:38:04.548Z,18.2
2019-01-11T04:38:53.766Z,18.2
2019-01-11T04:39:44.726Z,18.2
2019-01-11T04:40:40.302Z,18.2
2019-01-11T04:41:23.932Z,18.2
2019-01-11T04:42:14.824Z,18.2
2019-01-11T04:43:04.604Z,18.2
2019-01-11T04:43:54.119Z,18.2
2019-01-11T04:44:45.004Z,18.2
2019-01-11T04:45:35.167Z,18.3
2019-01-11T04:46:24.596Z,18.2
2019-01-11T05:04:00.886Z,18.3
2019-01-11T05:04:58.864Z,18.3
2019-01-11T05:05:28.500Z,18.3
2019-01-11T05:06:45.318Z,18.3
2019-01-11T05:07:58.879Z,18.3
2019-01-11T05:08:33.276Z,18.3
2019-01-11T05:09:58.352Z,18.3
2019-01-11T05:10:34.963Z,18.3
2019-01-11T05:12:09.216Z,18.3
2019-01-11T09:18:13.060Z,17.9
2019-01-11T09:19:02.449Z,17.9
2019-01-11T09:19:53.268Z,17.9
2019-01-11T09:20:43.848Z,17.9
2019-01-11T09:21:34.031Z,18
2019-01-11T09:22:23.943Z,18
2019-01-11T09:23:12.096Z,17.9
2019-01-11T09:24:03.544Z,18
2019-01-11T09:24:53.330Z,18
2019-01-11T09:25:43.387Z,18
2019-01-11T09:26:33.398Z,18
2019-01-11T09:27:22.635Z,18
2019-01-11T09:28:14.360Z,18
2019-01-11T09:29:03.932Z,18
2019-01-11T09:29:54.160Z,18.1
2019-01-11T09:30:43.953Z,18.1
2019-01-11T09:31:34.008Z,18.1
2019-01-11T09:32:24.090Z,18.1
2019-01-11T09:33:20.953Z,18.1
2019-01-11T09:34:04.735Z,18.1
2019-01-11T09:34:54.257Z,18.1
2019-01-11T09:35:44.300Z,18.1
2019-01-11T09:36:33.900Z,18.1
2019-01-11T09:37:24.400Z,18.1
2019-01-11T09:38:14.738Z,18.1
2019-01-11T09:39:04.031Z,18.1
2019-01-11T09:39:54.905Z,18.1
2019-01-11T09:40:44.367Z,18.1
2019-01-11T09:41:34.695Z,18.1
2019-01-11T09:42:24.514Z,18.1
2019-01-11T09:43:14.834Z,18.1
2019-01-11T09:44:04.615Z,18.1
2019-01-11T09:44:54.963Z,18.2
2019-01-11T09:45:44.695Z,18.1
2019-01-11T09:46:35.309Z,18.2
2019-01-11T09:47:25.619Z,18.2
2019-01-11T09:48:15.474Z,18.2
2019-01-11T09:49:04.934Z,18.2
2019-01-11T09:49:55.404Z,18.2
2019-01-11T09:50:44.811Z,18.2
2019-01-11T09:51:34.801Z,18.3
2019-01-11T09:52:25.144Z,18.2
2019-01-11T09:53:14.947Z,18.3
2019-01-11T09:54:05.828Z,18.3
2019-01-11T09:54:56.159Z,18.3
2019-01-11T09:55:44.538Z,18.3
2019-01-11T09:56:35.748Z,18.3
2019-01-11T09:57:26.032Z,18.3
2019-01-11T09:58:16.136Z,18.3
2019-01-11T09:59:05.777Z,18.3
2019-01-11T09:59:55.896Z,18.3
2019-01-11T10:00:46.891Z,18.4
2019-01-11T10:01:36.083Z,18.4
2019-01-11T10:02:26.166Z,18.4
2019-01-11T10:03:16.772Z,18.4
2019-01-11T10:04:06.313Z,18.4
2019-01-11T10:04:55.831Z,18.4
2019-01-11T10:05:46.313Z,18.4
2019-01-11T10:06:36.173Z,18.4
2019-01-11T10:07:25.888Z,18.4
2019-01-11T10:08:16.786Z,18.4
2019-01-11T10:09:06.280Z,18.4
2019-01-11T10:09:56.888Z,18.4
2019-01-11T10:10:45.840Z,18.4
2019-01-11T10:11:36.171Z,18.4
2019-01-11T10:12:26.248Z,18.4
2019-01-11T10:13:16.545Z,18.4
2019-01-11T10:14:06.362Z,18.4
2019-01-11T10:14:57.232Z,18.4
2019-01-11T10:15:47.288Z,18.4
2019-01-11T10:16:37.060Z,18.4
2019-01-11T10:17:26.847Z,18.4
2019-01-11T10:18:17.163Z,18.4
2019-01-11T10:19:06.957Z,18.4
2019-01-11T10:19:57.042Z,18.4
2019-01-11T10:20:47.074Z,18.4
2019-01-11T10:21:36.830Z,18.4
2019-01-11T10:22:27.455Z,18.4
2019-01-11T10:23:17.212Z,18.4
2019-01-11T10:24:07.625Z,18.4
2019-01-11T10:24:57.449Z,18.4
2019-01-11T10:25:47.115Z,18.4
2019-01-11T10:26:37.754Z,18.4
2019-01-11T10:27:27.287Z,18.4
2019-01-11T10:28:18.102Z,18.5
2019-01-11T10:29:07.621Z,18.4
2019-01-11T10:29:56.845Z,18.5
2019-01-11T10:30:48.288Z,18.5
2019-01-11T10:31:37.784Z,18.4
2019-01-11T10:32:27.576Z,18.5
2019-01-11T10:33:18.171Z,18.5
2019-01-11T10:34:08.776Z,18.5
2019-01-11T10:34:58.274Z,18.4
2019-01-11T10:35:48.361Z,18.5
2019-01-11T10:36:38.388Z,18.4
2019-01-11T10:37:28.428Z,18.5
2019-01-11T10:38:18.529Z,18.4
2019-01-11T10:39:08.866Z,18.4
2019-01-11T10:39:59.178Z,18.5
2019-01-11T10:40:48.713Z,18.4
2019-01-11T10:41:39.018Z,18.5
2019-01-11T10:42:28.838Z,18.5
2019-01-11T10:43:18.575Z,18.4
2019-01-11T10:44:09.198Z,18.5
2019-01-11T10:44:59.220Z,18.4
2019-01-11T10:45:49.050Z,18.4
2019-01-11T10:46:39.076Z,18.4
2019-01-11T10:47:29.408Z,18.4
2019-01-11T10:48:18.925Z,18.4
2019-01-11T10:49:09.230Z,18.4
2019-01-11T10:49:59.011Z,18.4
2019-01-11T10:50:49.160Z,18.4
2019-01-11T10:51:39.697Z,18.4
2019-01-11T10:52:29.455Z,18.4
2019-01-11T10:53:18.498Z,18.5
2019-01-11T10:54:08.536Z,18.4
2019-01-11T10:54:58.880Z,18.4
2019-01-11T10:55:49.125Z,18.4
2019-01-11T10:56:39.725Z,18.4
2019-01-11T10:57:29.792Z,18.4
2019-01-11T10:58:19.595Z,18.4
2019-01-11T10:59:10.227Z,18.5
2019-01-11T11:00:00.225Z,18.5
2019-01-11T11:00:49.943Z,18.5
2019-01-11T11:01:40.329Z,18.5
2019-01-11T11:02:30.120Z,18.5
2019-01-11T11:03:19.938Z,18.5
2019-01-11T11:04:09.695Z,18.5
2019-01-11T11:04:59.179Z,18.6
2019-01-11T11:05:50.137Z,18.6
2019-01-11T11:06:40.439Z,18.6
2019-01-11T11:07:30.241Z,18.6
2019-01-11T11:08:21.076Z,18.6
2019-01-11T11:09:10.894Z,18.6
2019-01-11T11:10:00.722Z,18.6
2019-01-11T11:10:49.861Z,18.6
2019-01-11T11:11:40.776Z,18.6
2019-01-11T11:12:31.079Z,18.6
2019-01-11T11:13:20.862Z,18.6
2019-01-11T11:14:10.976Z,18.6
2019-01-11T11:15:00.738Z,18.6
2019-01-11T11:15:51.301Z,18.6
2019-01-11T11:16:41.129Z,18.6
2019-01-11T11:17:30.363Z,18.6
2019-01-11T11:18:21.471Z,18.6
2019-01-11T11:19:10.954Z,18.6
2019-01-11T11:48:23.016Z,18.8
2019-01-11T11:49:12.988Z,18.8
2019-01-11T11:50:03.129Z,18.8
2019-01-11T11:50:53.396Z,18.8
2019-01-11T11:51:47.891Z,18.8
2019-01-11T11:53:23.296Z,18.8
2019-01-11T11:54:12.791Z,18.8
2019-01-11T11:55:03.195Z,18.8
2019-01-11T11:55:52.965Z,18.8
2019-01-11T11:56:44.329Z,18.8
2019-01-11T11:57:34.633Z,18.8
2019-01-11T11:58:23.951Z,18.8
2019-01-11T11:59:13.433Z,18.8
2019-01-11T12:00:03.501Z,18.8
2019-01-11T12:00:53.847Z,18.8
2019-01-11T12:01:52.344Z,18.8
2019-01-11T12:02:34.510Z,18.8
2019-01-11T12:03:24.251Z,18.8
2019-01-11T12:04:13.716Z,18.8
2019-01-11T12:05:03.531Z,18.8
2019-01-11T12:05:54.425Z,18.8
2019-01-11T12:06:43.931Z,18.8
2019-01-11T12:07:34.231Z,18.8
2019-01-11T12:08:24.845Z,18.8
2019-01-11T12:09:14.625Z,18.8
2019-01-11T12:10:04.692Z,18.8
2019-01-11T12:10:55.060Z,18.8
2019-01-11T12:11:44.515Z,18.8
2019-01-11T12:12:36.311Z,18.8
2019-01-11T12:13:24.940Z,18.8
2019-01-11T12:14:14.952Z,18.8
2019-01-11T12:15:04.490Z,18.8
2019-01-11T12:15:54.500Z,18.8
2019-01-11T12:16:45.117Z,18.8
2019-01-11T12:17:36.350Z,18.9
2019-01-11T12:18:25.282Z,18.9
2019-01-11T12:19:15.054Z,18.9
2019-01-11T12:20:05.427Z,18.9
2019-01-11T12:20:54.312Z,18.9
2019-01-11T12:21:51.412Z,18.9
2019-01-11T12:22:35.522Z,18.9
2019-01-11T12:23:25.867Z,18.9
2019-01-11T12:24:15.917Z,18.9
2019-01-11T12:25:05.177Z,18.9
2019-01-11T12:25:55.169Z,18.9
2019-01-11T12:26:45.069Z,18.9
2019-01-11T12:27:34.827Z,18.9
2019-01-11T12:28:24.897Z,18.9
2019-01-11T12:29:15.785Z,19
2019-01-11T12:30:05.314Z,19
2019-01-11T12:30:55.329Z,19
2019-01-11T12:31:44.800Z,19
2019-01-11T12:32:35.669Z,19
2019-01-11T12:33:25.034Z,19
2019-01-11T12:34:15.344Z,19
2019-01-11T12:35:05.692Z,19
2019-01-11T12:35:55.779Z,19
2019-01-11T12:36:45.976Z,19
2019-01-11T12:37:35.019Z,19
2019-01-11T12:38:25.681Z,19
2019-01-11T12:39:16.460Z,19
2019-01-11T12:40:07.034Z,19.1
2019-01-11T12:40:56.192Z,19
2019-01-11T12:41:46.860Z,19
2019-01-11T12:42:36.018Z,19
2019-01-11T12:43:26.682Z,19
2019-01-11T12:44:17.265Z,19
2019-01-11T12:45:06.224Z,19
2019-01-11T12:45:57.351Z,19
2019-01-11T12:46:46.592Z,19
2019-01-11T12:47:37.486Z,19
2019-01-11T12:48:26.723Z,19
2019-01-11T12:49:17.096Z,19
2019-01-11T12:50:07.112Z,19
2019-01-11T12:50:56.873Z,19
2019-01-11T12:51:47.228Z,19
2019-01-11T12:52:37.595Z,18.9
2019-01-11T12:53:27.910Z,18.9
2019-01-11T12:54:17.895Z,19
2019-01-11T12:55:07.795Z,18.9
2019-01-11T12:55:57.823Z,18.9
2019-01-11T12:56:48.118Z,18.9
2019-01-11T12:57:37.945Z,18.9
2019-01-11T12:58:27.638Z,18.9
2019-01-11T12:59:17.375Z,18.9
2019-01-11T13:00:07.784Z,18.9
2019-01-11T13:00:57.807Z,18.9
2019-01-11T13:01:47.690Z,18.9
2019-01-11T13:02:37.792Z,18.9
2019-01-11T13:03:28.595Z,18.9
2019-01-11T13:04:18.105Z,18.9
2019-01-11T13:05:07.119Z,19
2019-01-11T13:05:58.987Z,18.9
2019-01-11T13:06:47.707Z,18.9
2019-01-11T13:07:37.757Z,18.9
2019-01-11T13:08:28.129Z,18.9
2019-01-11T13:09:18.407Z,18.9
2019-01-11T13:10:08.069Z,18.9
2019-01-11T13:10:58.004Z,18.9
2019-01-11T13:11:48.886Z,18.9
2019-01-11T13:12:38.776Z,18.9
2019-01-11T13:13:28.468Z,18.9
2019-01-11T13:14:18.239Z,18.9
2019-01-11T13:15:08.824Z,18.9
2019-01-11T13:15:58.884Z,18.9
2019-01-11T13:16:48.491Z,18.9
2019-01-11T13:17:38.309Z,18.9
2019-01-11T13:18:27.763Z,18.9
2019-01-11T13:19:18.131Z,18.9
2019-01-11T13:20:08.168Z,18.9
2019-01-11T13:20:58.752Z,18.9
2019-01-11T13:21:48.576Z,18.9
2019-01-11T13:22:39.602Z,18.9
2019-01-11T13:23:29.405Z,18.9
2019-01-11T13:24:19.464Z,18.9
2019-01-11T13:25:09.590Z,19
2019-01-11T13:25:59.591Z,18.9
2019-01-11T13:26:49.958Z,18.9
2019-01-11T13:27:39.666Z,18.9
2019-01-11T13:28:28.353Z,18.9
2019-01-11T13:29:19.360Z,18.9
2019-01-11T13:30:09.713Z,18.9
2019-01-11T13:30:59.648Z,18.9
2019-01-11T13:31:49.207Z,18.9
2019-01-11T13:32:39.588Z,19
2019-01-11T13:33:29.612Z,19
2019-01-11T13:34:19.412Z,18.9
2019-01-11T13:35:09.894Z,19
2019-01-11T13:35:59.693Z,19
2019-01-11T13:36:57.358Z,19
2019-01-11T13:37:40.852Z,19
2019-01-11T13:38:30.630Z,19
2019-01-11T13:39:20.980Z,19
2019-01-11T13:40:10.169Z,19
2019-01-11T13:41:00.793Z,19
2019-01-11T13:41:51.396Z,19
2019-01-11T13:42:41.446Z,19
2019-01-11T13:43:31.053Z,19
2019-01-11T13:44:19.975Z,19
2019-01-11T13:45:11.192Z,19
2019-01-11T13:46:00.834Z,19
2019-01-11T13:46:51.489Z,19
2019-01-11T13:47:40.503Z,18.9
2019-01-11T13:48:30.272Z,18.9
2019-01-11T13:49:20.610Z,18.9
2019-01-11T13:50:10.702Z,18.9
2019-01-11T13:51:02.947Z,18.9
2019-01-11T13:51:51.039Z,18.9
2019-01-11T13:52:41.389Z,18.9
2019-01-11T13:53:31.433Z,18.9
2019-01-11T13:54:20.991Z,18.9
2019-01-11T13:55:11.199Z,18.9
2019-01-11T13:56:01.052Z,18.9
2019-01-11T13:56:51.635Z,18.9
2019-01-11T13:57:42.186Z,18.9
2019-01-11T13:58:31.780Z,18.9
2019-01-11T13:59:21.283Z,18.9
2019-01-11T14:16:54.314Z,18.9
2019-01-11T14:17:43.925Z,18.9
2019-01-11T14:18:33.688Z,18.9
2019-01-11T14:19:24.618Z,18.9
2019-01-11T14:20:13.830Z,18.9
2019-01-11T14:21:04.158Z,18.9
2019-01-11T14:21:54.577Z,18.9
2019-01-11T14:22:44.845Z,18.9
2019-01-11T14:23:33.267Z,18.9
2019-01-11T14:24:23.880Z,18.9
2019-01-11T14:25:14.707Z,18.9
2019-01-11T14:26:04.547Z,18.9
2019-01-11T14:26:54.836Z,18.9
2019-01-11T14:27:44.409Z,18.9
2019-01-11T14:28:33.889Z,18.9
2019-01-11T14:29:24.517Z,18.9
2019-01-11T14:30:14.284Z,18.9
2019-01-11T14:31:03.812Z,18.9
2019-01-11T14:31:54.449Z,18.9
2019-01-11T14:32:44.724Z,18.9
2019-01-11T14:33:35.257Z,18.9
2019-01-11T14:34:25.107Z,18.9
2019-01-11T14:35:14.832Z,18.9
2019-01-11T14:36:04.296Z,18.9
2019-01-11T14:36:56.040Z,18.9
2019-01-11T14:37:44.719Z,18.9
2019-01-11T14:38:34.528Z,18.9
2019-01-11T14:39:25.096Z,18.9
2019-01-11T14:40:14.715Z,18.9
2019-01-11T14:41:04.925Z,18.9
2019-01-11T14:41:55.655Z,18.9
2019-01-11T14:42:44.912Z,18.9
2019-01-11T14:43:35.671Z,18.8
2019-01-11T14:44:24.914Z,18.8
2019-01-11T14:45:15.219Z,18.8
2019-01-11T14:46:06.113Z,18.8
2019-01-11T14:46:55.876Z,18.9
2019-01-11T14:47:46.296Z,18.8
2019-01-11T14:48:35.461Z,18.8
2019-01-11T14:49:26.596Z,18.8
2019-01-11T14:50:15.860Z,18.8
2019-01-11T14:51:05.911Z,18.8
2019-01-11T14:51:56.250Z,18.8
2019-01-11T14:52:46.321Z,18.8
2019-01-11T14:53:36.078Z,18.8
2019-01-11T14:54:26.143Z,18.8
2019-01-11T14:55:15.903Z,18.8
2019-01-11T14:56:06.503Z,18.8
2019-01-11T14:56:56.343Z,18.8
2019-01-11T14:57:46.424Z,18.8
2019-01-11T14:58:36.472Z,18.8
2019-01-11T14:59:26.718Z,18.8
2019-01-11T15:00:16.642Z,18.8
2019-01-11T15:01:07.295Z,18.8
2019-01-11T15:01:57.249Z,18.8
2019-01-11T15:02:46.713Z,18.8
2019-01-11T15:03:36.770Z,18.8
2019-01-11T15:04:26.812Z,18.8
2019-01-11T15:05:16.738Z,18.8
2019-01-11T15:06:06.377Z,18.8
2019-01-11T15:18:37.475Z,18.6
2019-01-11T15:20:18.150Z,18.6
2019-01-11T15:21:58.258Z,18.6
2019-01-11T15:22:47.764Z,18.6
2019-01-11T15:23:38.679Z,18.6
2019-01-11T15:24:28.134Z,18.6
2019-01-11T15:25:18.210Z,18.6
2019-01-11T15:26:08.271Z,18.6
2019-01-11T15:26:58.881Z,18.6
2019-01-11T15:27:48.378Z,18.6
2019-01-11T15:28:38.740Z,18.6
2019-01-11T15:29:29.053Z,18.6
2019-01-11T15:30:18.782Z,18.6
2019-01-11T15:31:08.897Z,18.6
2019-01-11T15:31:59.184Z,18.6
2019-01-11T15:32:48.225Z,18.6
2019-01-11T15:33:38.535Z,18.6
2019-01-11T15:34:29.396Z,18.6
2019-01-11T15:35:18.308Z,18.6
2019-01-11T15:36:09.468Z,18.6
2019-01-11T15:36:58.945Z,18.6
2019-01-11T15:37:49.625Z,18.6
2019-01-11T15:38:39.153Z,18.6
2019-01-11T15:39:28.910Z,18.6
2019-01-11T15:40:19.481Z,18.6
2019-01-11T15:41:10.118Z,18.6
2019-01-11T15:41:59.870Z,18.6
2019-01-11T15:42:49.925Z,18.6
2019-01-11T15:43:39.437Z,18.6
2019-01-11T15:44:28.672Z,18.6
2019-01-11T15:45:19.245Z,18.5
2019-01-11T15:46:15.980Z,18.5
2019-01-11T15:47:00.460Z,18.5
2019-01-11T15:47:50.555Z,18.5
2019-01-11T15:48:40.022Z,18.5
2019-01-11T15:49:30.697Z,18.5
2019-01-11T15:50:20.425Z,18.5
2019-01-11T15:51:10.197Z,18.5
2019-01-11T15:52:00.252Z,18.5
2019-01-11T15:52:50.324Z,18.5
2019-01-11T15:53:40.839Z,18.5
2019-01-11T15:54:30.179Z,18.4
2019-01-11T15:55:20.251Z,18.5
2019-01-11T15:56:10.009Z,18.5
2019-01-11T15:57:00.904Z,18.4
2019-01-11T15:57:51.536Z,18.4
2019-01-11T15:58:40.429Z,18.5
2019-01-11T15:59:30.791Z,18.5
2019-01-11T16:00:20.789Z,18.5
2019-01-11T16:01:10.621Z,18.5
2019-01-11T16:02:00.914Z,18.5
2019-01-11T16:02:50.136Z,18.5
2019-01-11T16:03:40.490Z,18.5
2019-01-11T16:04:31.094Z,18.5
2019-01-11T16:05:20.872Z,18.5
2019-01-11T16:06:11.210Z,18.5
2019-01-11T16:07:00.706Z,18.5
2019-01-11T16:07:52.793Z,18.5
2019-01-11T16:08:41.128Z,18.5
2019-01-11T16:09:31.503Z,18.5
2019-01-11T16:10:20.376Z,18.5
2019-01-11T16:11:11.375Z,18.5
2019-01-11T16:12:01.080Z,18.5
2019-01-11T16:12:51.835Z,18.5
2019-01-11T16:13:41.168Z,18.5
2019-01-11T16:14:32.096Z,18.6
2019-01-11T16:15:21.278Z,18.6
2019-01-11T16:16:11.875Z,18.5
2019-01-11T16:17:01.935Z,18.6
2019-01-11T16:17:52.535Z,18.6
2019-01-11T16:18:41.505Z,18.6
2019-01-11T16:19:31.551Z,18.5
2019-01-11T16:20:22.180Z,18.6
2019-01-11T16:21:11.378Z,18.6
2019-01-11T16:22:01.440Z,18.5
2019-01-11T16:22:51.493Z,18.5
2019-01-11T16:23:41.825Z,18.5
2019-01-11T16:24:32.765Z,18.6
2019-01-11T16:25:22.773Z,18.6
2019-01-11T16:26:12.832Z,18.6
2019-01-11T16:27:02.612Z,18.5
2019-01-11T16:27:52.940Z,18.6
2019-01-11T16:28:43.315Z,18.6
2019-01-11T16:29:33.050Z,18.6
2019-01-11T16:30:22.602Z,18.6
2019-01-11T16:31:12.614Z,18.6
2019-01-11T16:32:04.264Z,18.6
2019-01-11T16:32:52.773Z,18.6
2019-01-11T16:33:43.361Z,18.6
2019-01-11T16:34:33.391Z,18.6
2019-01-11T16:35:22.620Z,18.6
2019-01-11T16:36:13.220Z,18.6
2019-01-11T16:37:02.413Z,18.6
2019-01-11T16:37:53.648Z,18.6
2019-01-11T16:38:43.385Z,18.6
2019-01-11T16:39:33.200Z,18.6
2019-01-11T16:40:22.982Z,18.6
2019-01-11T16:41:13.570Z,18.6
2019-01-11T16:42:04.075Z,18.6
2019-01-11T16:42:53.383Z,18.6
2019-01-11T16:43:42.975Z,18.6
2019-01-11T16:44:34.164Z,18.6
2019-01-11T16:45:24.115Z,18.6
2019-01-11T16:46:13.642Z,18.6
2019-01-11T16:47:03.999Z,18.6
2019-01-11T16:47:54.002Z,18.6
2019-01-11T16:48:43.861Z,18.6
2019-01-11T16:49:33.934Z,18.6
2019-01-11T16:51:14.363Z,18.6
2019-01-11T16:57:04.156Z,18.6
2019-01-11T16:58:44.504Z,18.6
2019-01-11T17:10:25.310Z,18.8
2019-01-11T17:11:15.605Z,18.8
2019-01-11T17:12:05.653Z,18.8
2019-01-11T17:12:55.741Z,18.8
2019-01-11T17:14:36.075Z,18.8
2019-01-11T17:15:26.525Z,18.8
2019-01-11T17:16:15.893Z,18.8
2019-01-11T17:17:06.238Z,18.8
2019-01-11T17:17:56.583Z,18.8
2019-01-11T17:18:45.809Z,18.8
2019-01-11T17:19:36.133Z,18.8
2019-01-11T17:20:25.663Z,18.8